Time;durP1;ratioP1;P1;durP2;ratioP2;P2;SDS_P1;SDS_P2;PMS_P1;PMS_P2;Temp;Humidity;BMP_temperature;BMP_pressure;BME280_temperature;BME280_humidity;BME280_pressure;Samples;Min_cycle;Max_cycle;Signal;HPM_P1;HPM_P2
2022/10/26 00:01:30;;;;;;;5.07;1.40;;;15.80;97.40;;;;;;5073206;28;20021;-79
2022/10/26 00:03:56;;;;;;;4.93;1.30;;;15.80;97.40;;;;;;5078133;28;20032;-79
2022/10/26 00:06:24;;;;;;;4.60;1.20;;;15.80;97.40;;;;;;5067892;28;20033;-79
2022/10/26 00:08:50;;;;;;;4.20;1.20;;;15.80;97.50;;;;;;5072420;28;20028;-79
2022/10/26 00:11:17;;;;;;;5.28;1.15;;;15.80;97.50;;;;;;5065865;28;20028;-79
2022/10/26 00:13:44;;;;;;;5.15;1.38;;;15.80;97.60;;;;;;5077471;28;20033;-79
2022/10/26 00:16:16;;;;;;;4.32;1.30;;;15.80;97.50;;;;;;5080114;28;20052;-79
2022/10/26 00:18:42;;;;;;;4.07;1.13;;;15.80;97.50;;;;;;5078287;28;20020;-79
2022/10/26 00:21:09;;;;;;;4.32;1.00;;;15.80;97.40;;;;;;5069649;28;20028;-79
2022/10/26 00:23:35;;;;;;;5.90;1.40;;;15.80;97.50;;;;;;5074894;28;20024;-80
2022/10/26 00:26:01;;;;;;;4.80;1.10;;;15.80;97.60;;;;;;5069360;28;20029;-79
2022/10/26 00:28:27;;;;;;;5.78;1.40;;;15.90;97.70;;;;;;5076315;28;20103;-79
2022/10/26 00:30:53;;;;;;;6.65;1.40;;;15.90;97.70;;;;;;5077635;28;20119;-79
2022/10/26 00:33:19;;;;;;;2.47;1.00;;;16.00;97.80;;;;;;5077462;28;20060;-79
2022/10/26 00:35:53;;;;;;;5.07;1.27;;;16.00;97.70;;;;;;5073551;28;20396;-79
2022/10/26 00:38:19;;;;;;;3.25;1.30;;;16.00;97.70;;;;;;5073139;28;20020;-80
2022/10/26 00:40:44;;;;;;;3.15;1.10;;;16.00;97.70;;;;;;5077431;28;20039;-81
2022/10/26 00:43:34;;;;;;;4.32;1.25;;;16.00;97.80;;;;;;5069080;28;20028;-80
2022/10/26 00:46:01;;;;;;;4.65;1.13;;;16.00;97.90;;;;;;5059801;28;20049;-80
2022/10/26 00:48:37;;;;;;;4.10;1.00;;;16.00;98.10;;;;;;5066220;28;20428;-80
2022/10/26 00:51:33;;;;;;;3.22;1.05;;;16.00;98.20;;;;;;5075634;28;20028;-80
2022/10/26 00:54:01;;;;;;;6.78;1.15;;;16.10;98.40;;;;;;5070312;28;20048;-80
2022/10/26 00:56:28;;;;;;;4.38;1.02;;;16.20;98.50;;;;;;5077143;28;20021;-80
2022/10/26 00:58:56;;;;;;;4.43;1.10;;;16.20;98.70;;;;;;5072641;28;20083;-81
2022/10/26 01:01:22;;;;;;;3.97;0.90;;;16.30;98.80;;;;;;5070881;28;20020;-80
2022/10/26 01:03:48;;;;;;;2.83;1.00;;;16.30;99.00;;;;;;5067221;28;20535;-80
2022/10/26 01:06:14;;;;;;;5.50;0.95;;;16.40;99.00;;;;;;5075583;28;20039;-80
2022/10/26 01:08:42;;;;;;;4.43;0.90;;;16.40;99.00;;;;;;5069358;28;20412;-80
2022/10/26 01:11:08;;;;;;;5.85;1.10;;;16.40;99.00;;;;;;5069051;28;20074;-80
2022/10/26 01:13:35;;;;;;;3.58;0.95;;;16.40;98.90;;;;;;5075357;28;20139;-80
2022/10/26 01:16:37;;;;;;;4.80;0.95;;;16.30;99.00;;;;;;5077956;28;20045;-78
2022/10/26 01:19:21;;;;;;;2.60;0.70;;;16.30;98.80;;;;;;5079632;28;20029;-75
2022/10/26 01:21:59;;;;;;;4.53;1.20;;;16.30;99.10;;;;;;5077579;28;20027;-77
2022/10/26 01:24:41;;;;;;;6.28;1.08;;;16.30;99.00;;;;;;5074023;28;20037;-77
2022/10/26 01:27:30;;;;;;;2.70;0.88;;;16.30;99.00;;;;;;5070675;28;20064;-77
2022/10/26 01:30:17;;;;;;;4.13;0.73;;;16.30;99.20;;;;;;5074548;28;20528;-79
2022/10/26 01:33:09;;;;;;;4.68;0.80;;;16.20;99.20;;;;;;5077371;28;20090;-79
2022/10/26 01:36:01;;;;;;;3.53;0.73;;;16.30;99.20;;;;;;5074665;28;20025;-78
2022/10/26 01:38:53;;;;;;;4.72;0.73;;;16.20;99.40;;;;;;5076012;28;20081;-79
2022/10/26 01:41:36;;;;;;;4.25;1.08;;;16.30;99.70;;;;;;5059650;28;20111;-79
2022/10/26 01:44:06;;;;;;;3.40;0.73;;;16.30;99.70;;;;;;5057557;28;20497;-78
2022/10/26 01:46:44;;;;;;;5.32;1.00;;;16.30;99.90;;;;;;5071322;28;20032;-79
2022/10/26 01:49:13;;;;;;;2.50;0.77;;;16.30;99.60;;;;;;5078004;28;20495;-78
2022/10/26 01:51:42;;;;;;;3.55;0.63;;;16.30;99.80;;;;;;5066218;28;20044;-78
2022/10/26 01:54:07;;;;;;;3.30;0.70;;;16.30;99.70;;;;;;5071005;28;20388;-79
2022/10/26 01:56:40;;;;;;;3.38;0.77;;;16.30;99.80;;;;;;5078579;28;20025;-79
2022/10/26 01:59:33;;;;;;;2.97;0.70;;;16.30;99.70;;;;;;5075702;28;20439;-78
2022/10/26 02:01:59;;;;;;;;;;;16.20;99.50;;;;;;5062985;28;20029;-79
2022/10/26 02:04:42;;;;;;;3.63;0.70;;;16.20;99.20;;;;;;5067923;28;19915;-79
2022/10/26 02:07:27;;;;;;;3.80;0.75;;;16.20;99.90;;;;;;5078316;28;20033;-79
2022/10/26 02:09:59;;;;;;;5.88;0.80;;;16.20;99.90;;;;;;5079769;28;20032;-79
2022/10/26 02:12:28;;;;;;;5.43;1.00;;;16.10;99.90;;;;;;5080066;28;20031;-78
2022/10/26 02:15:10;;;;;;;2.50;0.70;;;16.10;99.90;;;;;;5064640;28;20060;-78
2022/10/26 02:17:45;;;;;;;5.32;0.73;;;16.10;99.90;;;;;;5077102;28;20090;-79
2022/10/26 02:20:43;;;;;;;5.45;0.90;;;16.10;99.90;;;;;;5077664;28;20074;-78
2022/10/26 02:23:10;;;;;;;2.50;0.80;;;16.10;99.90;;;;;;5077597;28;20063;-79
2022/10/26 02:25:44;;;;;;;2.28;0.70;;;16.10;99.90;;;;;;5078005;28;20524;-79
2022/10/26 02:28:14;;;;;;;5.30;0.93;;;16.10;99.90;;;;;;5080330;28;20028;-78
2022/10/26 02:30:42;;;;;;;6.38;0.80;;;16.10;99.90;;;;;;5078429;28;20028;-79
2022/10/26 02:33:11;;;;;;;3.65;0.82;;;16.10;99.90;;;;;;5078498;28;20059;-79
2022/10/26 02:35:39;;;;;;;4.72;0.98;;;16.10;99.90;;;;;;5065198;28;20028;-79
2022/10/26 02:38:08;;;;;;;4.18;0.82;;;16.00;99.90;;;;;;5079284;28;20051;-78
2022/10/26 02:40:35;;;;;;;6.85;0.98;;;16.00;99.90;;;;;;5079326;28;20102;-78
2022/10/26 02:43:06;;;;;;;3.67;0.90;;;16.00;99.90;;;;;;5066119;28;20037;-78
2022/10/26 02:45:42;;;;;;;2.72;0.70;;;16.00;99.90;;;;;;5078853;28;20040;-78
2022/10/26 02:48:08;;;;;;;4.05;0.80;;;16.00;99.90;;;;;;5070190;28;20046;-78
2022/10/26 02:50:55;;;;;;;8.27;0.98;;;16.00;99.90;;;;;;5078151;28;20071;-79
2022/10/26 02:54:07;;;;;;;5.68;0.90;;;16.00;99.90;;;;;;5076212;28;20461;-78
2022/10/26 02:56:40;;;;;;;8.38;0.95;;;16.00;99.80;;;;;;5040033;28;20058;-79
2022/10/26 02:59:08;;;;;;;5.95;1.00;;;15.90;99.90;;;;;;5077392;28;20024;-79
2022/10/26 03:01:34;;;;;;;5.57;1.08;;;15.90;99.90;;;;;;5070827;28;20046;-79
2022/10/26 03:04:00;;;;;;;4.95;1.10;;;15.90;99.90;;;;;;5079251;28;20039;-79
2022/10/26 03:06:26;;;;;;;5.18;1.00;;;15.90;99.90;;;;;;5078294;28;20036;-78
2022/10/26 03:08:52;;;;;;;8.30;1.20;;;15.90;99.90;;;;;;5074748;28;20032;-79
2022/10/26 03:11:18;;;;;;;7.70;1.38;;;15.90;99.90;;;;;;5077326;28;20697;-79
2022/10/26 03:13:43;;;;;;;4.78;0.77;;;15.90;99.90;;;;;;5078969;28;20503;-78
2022/10/26 03:16:10;;;;;;;4.75;1.02;;;15.90;99.90;;;;;;5081034;28;20513;-79
2022/10/26 03:18:35;;;;;;;7.38;1.02;;;15.80;99.90;;;;;;5086579;28;20020;-79
2022/10/26 03:21:01;;;;;;;4.72;1.05;;;15.80;99.90;;;;;;5077600;28;20029;-80
2022/10/26 03:23:26;;;;;;;8.55;1.25;;;15.80;99.90;;;;;;5078180;28;20078;-79
2022/10/26 03:25:58;;;;;;;5.30;1.10;;;15.80;99.90;;;;;;5077185;28;20405;-79
2022/10/26 03:28:24;;;;;;;9.13;1.23;;;15.80;99.90;;;;;;5078711;28;20063;-79
2022/10/26 03:30:50;;;;;;;6.60;1.20;;;15.80;99.90;;;;;;5078594;28;20370;-80
2022/10/26 03:33:16;;;;;;;6.25;1.08;;;15.80;99.90;;;;;;5078874;28;20031;-78
2022/10/26 03:35:42;;;;;;;5.40;1.38;;;15.80;99.90;;;;;;5073846;28;20047;-79
2022/10/26 03:38:07;;;;;;;6.78;1.15;;;15.80;99.90;;;;;;5072875;28;20028;-79
2022/10/26 03:40:34;;;;;;;5.90;1.25;;;15.80;99.90;;;;;;5078085;28;20055;-80
2022/10/26 03:43:00;;;;;;;8.07;1.63;;;15.70;99.90;;;;;;5078369;28;20043;-79
2022/10/26 03:45:26;;;;;;;7.35;1.35;;;15.70;99.90;;;;;;5077019;28;20036;-79
2022/10/26 03:47:52;;;;;;;8.95;1.40;;;15.70;99.90;;;;;;5077100;28;20032;-80
2022/10/26 03:50:19;;;;;;;8.00;1.85;;;15.70;99.90;;;;;;5075550;28;20040;-80
2022/10/26 03:52:47;;;;;;;7.45;1.38;;;15.70;99.90;;;;;;5065891;28;20032;-80
2022/10/26 03:55:12;;;;;;;7.80;1.27;;;15.60;99.90;;;;;;5075950;28;20036;-80
2022/10/26 03:57:42;;;;;;;7.00;1.48;;;15.70;99.90;;;;;;5073027;28;20021;-79
2022/10/26 04:00:10;;;;;;;7.95;1.25;;;15.60;99.90;;;;;;5071006;28;20037;-79
2022/10/26 04:02:36;;;;;;;6.03;1.38;;;15.70;99.90;;;;;;5065028;28;20033;-79
2022/10/26 04:05:02;;;;;;;10.18;1.30;;;15.60;99.90;;;;;;5075173;28;20063;-80
2022/10/26 04:07:27;;;;;;;7.28;1.02;;;15.60;99.90;;;;;;5071669;28;20032;-80
2022/10/26 04:09:53;;;;;;;7.55;1.63;;;15.60;99.90;;;;;;5076643;28;20024;-79
2022/10/26 04:12:19;;;;;;;8.20;1.90;;;15.60;99.90;;;;;;5077677;28;20427;-78
2022/10/26 04:14:44;;;;;;;9.93;1.65;;;15.60;99.90;;;;;;5074853;28;20476;-78
2022/10/26 04:17:10;;;;;;;8.80;1.50;;;15.60;99.90;;;;;;5089133;28;20071;-78
2022/10/26 04:19:35;;;;;;;6.93;1.20;;;15.60;99.90;;;;;;5078021;28;20520;-78
2022/10/26 04:22:01;;;;;;;7.40;1.38;;;15.60;99.90;;;;;;5065740;28;20508;-78
2022/10/26 04:24:27;;;;;;;7.03;1.30;;;15.60;99.90;;;;;;5077241;28;20043;-78
2022/10/26 04:26:54;;;;;;;9.50;1.33;;;15.60;99.90;;;;;;5071699;28;20052;-78
2022/10/26 04:29:19;;;;;;;6.55;1.25;;;15.60;99.90;;;;;;5074959;28;20074;-79
2022/10/26 04:31:45;;;;;;;8.18;1.30;;;15.50;99.90;;;;;;5064669;28;20098;-79
2022/10/26 04:34:10;;;;;;;5.03;1.10;;;15.60;99.90;;;;;;5077081;28;20040;-79
2022/10/26 04:36:36;;;;;;;6.53;1.10;;;15.50;99.90;;;;;;5071558;28;20024;-79
2022/10/26 04:39:02;;;;;;;8.18;1.30;;;15.50;99.90;;;;;;5076686;28;20020;-80
2022/10/26 04:41:27;;;;;;;10.32;1.35;;;15.50;99.90;;;;;;5068896;28;20016;-80
2022/10/26 04:43:53;;;;;;;8.68;1.45;;;15.50;99.90;;;;;;5076213;28;20107;-78
2022/10/26 04:46:19;;;;;;;7.45;1.38;;;15.50;99.90;;;;;;5074652;28;20032;-78
2022/10/26 04:48:47;;;;;;;7.90;1.30;;;15.50;99.90;;;;;;5072356;28;20689;-78
2022/10/26 04:51:12;;;;;;;7.18;1.20;;;15.50;99.90;;;;;;5064994;28;20087;-76
2022/10/26 04:53:38;;;;;;;6.65;1.45;;;15.50;99.90;;;;;;5071984;28;20036;-78
2022/10/26 04:56:04;;;;;;;8.35;1.55;;;15.40;99.90;;;;;;5071235;28;20024;-77
2022/10/26 04:58:29;;;;;;;7.72;1.30;;;15.40;99.90;;;;;;5075968;28;20386;-77
2022/10/26 05:00:55;;;;;;;8.07;1.27;;;15.40;99.90;;;;;;5076305;28;20021;-77
2022/10/26 05:03:21;;;;;;;6.65;1.25;;;15.40;99.90;;;;;;5062907;28;20039;-76
2022/10/26 05:05:46;;;;;;;6.35;1.17;;;15.40;99.90;;;;;;5068159;28;20052;-77
2022/10/26 05:08:13;;;;;;;7.38;1.25;;;15.40;99.90;;;;;;5062858;28;20487;-78
2022/10/26 05:10:39;;;;;;;6.55;1.20;;;15.40;99.90;;;;;;5074261;28;20036;-78
2022/10/26 05:13:05;;;;;;;7.07;1.30;;;15.40;99.90;;;;;;5067426;28;20505;-79
2022/10/26 05:15:31;;;;;;;9.52;1.33;;;15.40;99.90;;;;;;5064583;28;20040;-77
2022/10/26 05:18:04;;;;;;;9.80;1.40;;;15.40;99.90;;;;;;5086267;28;20052;-79
2022/10/26 05:20:30;;;;;;;;;;;15.40;99.90;;;;;;5077801;28;20021;-76
2022/10/26 05:22:58;;;;;;;4.20;1.02;;;15.40;99.90;;;;;;5075306;28;19952;-80
2022/10/26 05:25:24;;;;;;;8.40;1.50;;;15.40;99.90;;;;;;5077295;28;20108;-78
2022/10/26 05:27:50;;;;;;;6.53;1.20;;;15.40;99.90;;;;;;5070701;28;20025;-78
2022/10/26 05:30:15;;;;;;;8.00;1.38;;;15.50;99.90;;;;;;5069037;28;20082;-78
2022/10/26 05:32:41;;;;;;;9.70;1.27;;;15.50;99.90;;;;;;5076724;28;20042;-78
2022/10/26 05:35:07;;;;;;;6.00;1.25;;;15.50;99.90;;;;;;5076057;28;20074;-78
2022/10/26 05:37:32;;;;;;;8.00;1.20;;;15.50;99.90;;;;;;5076897;28;20465;-78
2022/10/26 05:39:58;;;;;;;5.18;1.00;;;15.50;99.90;;;;;;5076439;28;20048;-77
2022/10/26 05:42:24;;;;;;;6.78;1.35;;;15.50;99.90;;;;;;5076954;28;20100;-79
2022/10/26 05:44:50;;;;;;;5.93;0.95;;;15.50;99.90;;;;;;5076617;28;20033;-78
2022/10/26 05:47:15;;;;;;;8.75;1.10;;;15.50;99.90;;;;;;5077039;28;20024;-78
2022/10/26 05:49:41;;;;;;;5.50;1.20;;;15.50;99.90;;;;;;5075224;28;20037;-78
2022/10/26 05:52:07;;;;;;;6.18;1.33;;;15.50;99.90;;;;;;5077148;28;20027;-78
2022/10/26 05:54:32;;;;;;;4.53;0.93;;;15.50;99.90;;;;;;5073437;28;20024;-79
2022/10/26 05:56:58;;;;;;;9.05;1.05;;;15.50;99.90;;;;;;5075654;28;20027;-79
2022/10/26 05:59:24;;;;;;;6.53;1.30;;;15.60;99.90;;;;;;5075513;28;20078;-78
2022/10/26 06:01:54;;;;;;;8.20;1.30;;;15.60;99.90;;;;;;5075771;28;20027;-79
2022/10/26 06:04:24;;;;;;;9.35;1.30;;;15.60;99.90;;;;;;5076484;28;20047;-79
2022/10/26 06:06:53;;;;;;;5.50;1.38;;;15.70;99.90;;;;;;5075822;28;20359;-79
2022/10/26 06:09:19;;;;;;;4.90;1.02;;;15.70;99.90;;;;;;5075994;28;20017;-79
2022/10/26 06:11:45;;;;;;;7.82;1.55;;;15.70;99.90;;;;;;5073290;28;20084;-79
2022/10/26 06:14:11;;;;;;;5.60;1.20;;;15.80;99.90;;;;;;5075856;28;20465;-79
2022/10/26 06:16:57;;;;;;;6.40;1.20;;;15.80;99.90;;;;;;5081943;28;20075;-79
2022/10/26 06:19:50;;;;;;;5.07;1.05;;;15.80;99.90;;;;;;5078260;28;20021;-79
2022/10/26 06:22:16;;;;;;;;;;;15.80;99.90;;;;;;5071960;28;20081;-77
2022/10/26 06:25:00;;;;;;;8.75;1.15;;;15.80;99.90;;;;;;5074875;28;19904;-77
2022/10/26 06:27:57;;;;;;;10.05;1.38;;;15.80;99.90;;;;;;5074889;28;20029;-77
2022/10/26 06:30:22;;;;;;;8.65;1.10;;;15.80;99.90;;;;;;5075912;28;20032;-77
2022/10/26 06:32:52;;;;;;;7.30;1.17;;;15.80;99.90;;;;;;5076887;28;20089;-77
2022/10/26 06:35:32;;;;;;;8.93;1.63;;;15.80;99.90;;;;;;5078560;28;20024;-78
2022/10/26 06:38:03;;;;;;;8.25;1.50;;;15.80;99.90;;;;;;5079714;28;20373;-79
2022/10/26 06:40:31;;;;;;;7.05;1.42;;;15.80;99.90;;;;;;5078230;28;20016;-80
2022/10/26 06:42:58;;;;;;;6.47;1.50;;;15.80;99.90;;;;;;5078130;28;20036;-79
2022/10/26 06:45:24;;;;;;;7.13;1.58;;;15.80;99.90;;;;;;5079193;28;20204;-79
2022/10/26 06:48:14;;;;;;;7.38;1.50;;;15.70;99.90;;;;;;5077167;28;20115;-79
2022/10/26 06:50:50;;;;;;;4.40;0.90;;;15.70;99.90;;;;;;5079509;28;20020;-79
2022/10/26 06:53:52;;;;;;;7.88;1.48;;;15.70;99.90;;;;;;5076407;28;20029;-79
2022/10/26 06:56:18;;;;;;;7.55;1.13;;;15.70;99.90;;;;;;5079558;28;20016;-79
2022/10/26 06:58:45;;;;;;;8.52;1.45;;;15.70;99.90;;;;;;5078439;28;20017;-79
2022/10/26 07:01:11;;;;;;;7.13;1.15;;;15.70;99.90;;;;;;5079393;28;20020;-80
2022/10/26 07:03:37;;;;;;;6.32;1.25;;;15.60;99.90;;;;;;5075669;28;20028;-80
2022/10/26 07:06:04;;;;;;;6.25;1.13;;;15.70;99.90;;;;;;5079428;28;20032;-81
2022/10/26 07:08:31;;;;;;;6.43;1.17;;;15.70;99.90;;;;;;5079428;28;20024;-78
2022/10/26 07:10:56;;;;;;;6.25;1.25;;;15.60;99.90;;;;;;5078845;28;20025;-79
2022/10/26 07:13:22;;;;;;;6.90;1.13;;;15.60;99.90;;;;;;5076666;28;20043;-78
2022/10/26 07:15:48;;;;;;;7.78;1.30;;;15.60;99.90;;;;;;5078575;28;20147;-77
2022/10/26 07:18:13;;;;;;;7.40;1.02;;;15.70;99.90;;;;;;5090210;28;20054;-76
2022/10/26 07:20:40;;;;;;;8.90;1.50;;;15.70;99.90;;;;;;5078969;28;20025;-77
2022/10/26 07:23:09;;;;;;;7.72;1.17;;;15.60;99.90;;;;;;5074865;28;20489;-78
2022/10/26 07:25:38;;;;;;;6.82;1.20;;;15.70;99.90;;;;;;5077690;28;20017;-77
2022/10/26 07:28:05;;;;;;;7.78;0.82;;;15.70;99.90;;;;;;5079226;28;20043;-78
2022/10/26 07:30:31;;;;;;;6.95;1.30;;;15.70;99.90;;;;;;5078475;28;20103;-77
2022/10/26 07:33:08;;;;;;;7.90;1.13;;;15.70;99.90;;;;;;5078861;28;20067;-78
2022/10/26 07:35:34;;;;;;;6.03;1.23;;;15.70;99.90;;;;;;5078576;28;20024;-78
2022/10/26 07:38:00;;;;;;;7.97;1.38;;;15.70;99.90;;;;;;5077258;28;20032;-79
2022/10/26 07:40:27;;;;;;;6.03;1.30;;;15.70;99.90;;;;;;5077904;28;20016;-76
2022/10/26 07:42:56;;;;;;;9.02;1.17;;;15.70;99.90;;;;;;5078590;28;20025;-76
2022/10/26 07:45:22;;;;;;;5.95;1.27;;;15.80;99.90;;;;;;5077759;28;20511;-79
2022/10/26 07:47:49;;;;;;;7.38;1.25;;;15.80;99.90;;;;;;5077137;28;20024;-77
2022/10/26 07:50:14;;;;;;;7.28;1.40;;;15.80;99.90;;;;;;5078096;28;20467;-78
2022/10/26 07:52:41;;;;;;;7.85;1.30;;;15.80;99.90;;;;;;5074897;28;20032;-80
2022/10/26 07:55:10;;;;;;;7.80;1.42;;;15.80;99.90;;;;;;5074992;28;20051;-78
2022/10/26 07:57:37;;;;;;;5.05;1.30;;;15.80;99.90;;;;;;5078523;28;20021;-78
2022/10/26 08:00:04;;;;;;;4.50;1.00;;;15.90;99.90;;;;;;5076460;28;20497;-78
2022/10/26 08:02:30;;;;;;;6.32;1.10;;;15.90;99.90;;;;;;5076452;28;20039;-79
2022/10/26 08:04:56;;;;;;;8.48;1.48;;;15.90;99.90;;;;;;5077529;28;20021;-78
2022/10/26 08:07:21;;;;;;;5.60;1.08;;;16.00;99.90;;;;;;5077423;28;20036;-76
2022/10/26 08:09:47;;;;;;;5.72;1.10;;;16.00;99.90;;;;;;5077639;28;20032;-80
2022/10/26 08:12:15;;;;;;;9.13;1.30;;;16.00;99.90;;;;;;5077982;28;20561;-72
2022/10/26 08:14:41;;;;;;;6.15;1.13;;;16.10;99.90;;;;;;5077301;28;20070;-71
2022/10/26 08:17:07;;;;;;;5.55;0.90;;;16.10;99.90;;;;;;5088121;28;20036;-71
2022/10/26 08:19:33;;;;;;;4.75;1.05;;;16.20;99.90;;;;;;5078816;28;20103;-70
2022/10/26 08:21:59;;;;;;;4.72;0.95;;;16.20;99.90;;;;;;5077208;28;20052;-69
2022/10/26 08:24:24;;;;;;;5.97;1.17;;;16.30;99.90;;;;;;5077492;28;20070;-68
2022/10/26 08:26:50;;;;;;;5.93;1.10;;;16.30;99.90;;;;;;5076218;28;20085;-68
2022/10/26 08:29:15;;;;;;;9.05;1.23;;;16.40;99.90;;;;;;5077526;28;20017;-67
2022/10/26 08:31:41;;;;;;;8.27;1.17;;;16.50;99.90;;;;;;5077171;28;20397;-68
2022/10/26 08:34:07;;;;;;;5.57;1.50;;;16.50;99.90;;;;;;5077550;28;20404;-70
2022/10/26 08:36:32;;;;;;;9.20;1.38;;;16.60;99.90;;;;;;5075855;28;20481;-68
2022/10/26 08:38:58;;;;;;;7.28;1.38;;;16.70;99.90;;;;;;5075994;28;20032;-67
2022/10/26 08:41:45;;;;;;;8.13;1.30;;;16.70;99.90;;;;;;5077033;28;20028;-68
2022/10/26 08:44:31;;;;;;;5.90;1.20;;;16.80;99.90;;;;;;5075801;28;20511;-67
2022/10/26 08:47:19;;;;;;;8.60;1.30;;;16.80;99.90;;;;;;5075732;28;20032;-67
2022/10/26 08:50:03;;;;;;;11.95;1.20;;;16.90;99.90;;;;;;5063228;28;20043;-70
2022/10/26 08:52:45;;;;;;;6.28;1.00;;;16.90;99.90;;;;;;5078710;28;20020;-67
2022/10/26 08:55:15;;;;;;;3.55;0.95;;;17.00;99.90;;;;;;5078172;28;20404;-67
2022/10/26 08:57:41;;;;;;;3.55;1.10;;;17.00;99.90;;;;;;5076280;28;20473;-67
2022/10/26 09:00:14;;;;;;;7.40;1.30;;;17.10;99.90;;;;;;5082909;28;20032;-70
2022/10/26 09:02:39;;;;;;;7.28;1.25;;;17.10;99.90;;;;;;5075614;28;20412;-68
2022/10/26 09:05:15;;;;;;;7.75;1.55;;;17.10;99.90;;;;;;5075592;28;20024;-67
2022/10/26 09:07:50;;;;;;;7.90;1.08;;;17.10;99.90;;;;;;5077835;28;20400;-67
2022/10/26 09:10:40;;;;;;;11.75;1.42;;;17.10;99.90;;;;;;5076298;28;20096;-67
2022/10/26 09:13:13;;;;;;;5.90;1.10;;;17.10;99.90;;;;;;5076414;28;20401;-67
2022/10/26 09:15:52;;;;;;;7.80;1.30;;;17.10;99.90;;;;;;5076216;28;20362;-68
2022/10/26 09:18:42;;;;;;;6.20;1.23;;;17.10;99.90;;;;;;5076202;28;20029;-67
2022/10/26 09:21:10;;;;;;;4.22;0.98;;;17.10;99.90;;;;;;5075901;28;20028;-67
2022/10/26 09:24:01;;;;;;;6.00;1.10;;;17.10;99.90;;;;;;5075240;28;20024;-67
2022/10/26 09:26:41;;;;;;;7.47;1.38;;;17.10;99.90;;;;;;5085298;28;20040;-68
2022/10/26 09:29:12;;;;;;;4.60;0.98;;;17.10;99.90;;;;;;5076549;28;20049;-67
2022/10/26 09:31:46;;;;;;;6.60;1.00;;;17.10;99.90;;;;;;5076384;28;20084;-67
2022/10/26 09:34:31;;;;;;;6.53;1.23;;;17.00;99.90;;;;;;5076545;28;20033;-67
2022/10/26 09:36:57;;;;;;;5.10;1.17;;;16.90;99.90;;;;;;5074906;28;20078;-67
2022/10/26 09:39:41;;;;;;;3.35;0.77;;;16.90;99.90;;;;;;5075903;28;20024;-67
2022/10/26 09:42:28;;;;;;;5.07;0.90;;;16.80;99.90;;;;;;5074982;28;20533;-67
2022/10/26 09:44:59;;;;;;;5.97;1.02;;;16.80;99.90;;;;;;5073561;28;20036;-67
2022/10/26 09:47:34;;;;;;;6.32;1.25;;;16.80;99.90;;;;;;5075694;28;20063;-67
2022/10/26 09:50:35;;;;;;;5.22;1.30;;;16.90;99.90;;;;;;5075203;28;20048;-67
2022/10/26 09:53:02;;;;;;;4.30;0.90;;;16.80;99.90;;;;;;5071710;28;20051;-67
2022/10/26 09:55:29;;;;;;;3.50;0.65;;;16.80;99.90;;;;;;5075920;28;20025;-67
2022/10/26 09:57:58;;;;;;;3.95;1.00;;;16.80;99.90;;;;;;5075513;28;20021;-67
2022/10/26 10:00:24;;;;;;;4.57;0.90;;;16.80;99.90;;;;;;5084526;28;20052;-67
2022/10/26 10:02:53;;;;;;;5.47;1.00;;;16.80;99.90;;;;;;5076105;28;20028;-67
2022/10/26 10:05:21;;;;;;;3.80;1.00;;;16.70;99.90;;;;;;5076253;28;20029;-68
2022/10/26 10:07:47;;;;;;;3.72;1.10;;;16.80;99.90;;;;;;5068841;28;20017;-68
2022/10/26 10:10:20;;;;;;;4.15;0.93;;;16.90;99.90;;;;;;5071714;28;20035;-68
2022/10/26 10:12:49;;;;;;;2.83;0.90;;;16.90;99.90;;;;;;5076349;28;20631;-68
2022/10/26 10:15:24;;;;;;;3.55;0.70;;;17.00;99.90;;;;;;5071440;28;20025;-69
2022/10/26 10:17:56;;;;;;;1.50;0.52;;;17.10;99.90;;;;;;5077587;28;20055;-68
2022/10/26 10:20:30;;;;;;;2.65;0.70;;;17.10;99.90;;;;;;5078943;28;20052;-66
2022/10/26 10:23:01;;;;;;;2.47;0.75;;;17.10;99.90;;;;;;5078834;28;20025;-67
2022/10/26 10:25:38;;;;;;;2.33;0.70;;;17.20;99.90;;;;;;5072816;28;20056;-66
2022/10/26 10:28:25;;;;;;;2.83;1.08;;;17.20;99.90;;;;;;5077479;28;20056;-66
2022/10/26 10:30:58;;;;;;;6.10;0.88;;;17.20;99.90;;;;;;5079448;28;20396;-66
2022/10/26 10:33:40;;;;;;;3.22;0.60;;;17.20;99.90;;;;;;5079011;28;20017;-66
2022/10/26 10:36:29;;;;;;;3.15;0.82;;;17.20;99.90;;;;;;5079632;28;20448;-66
2022/10/26 10:38:54;;;;;;;4.60;1.73;;;17.30;99.90;;;;;;5079015;28;20020;-66
2022/10/26 10:41:26;;;;;;;4.60;1.10;;;17.40;99.90;;;;;;5068308;28;20056;-67
2022/10/26 10:44:20;;;;;;;3.42;0.98;;;17.50;99.90;;;;;;5077276;28;20392;-67
2022/10/26 10:46:46;;;;;;;3.70;1.15;;;17.50;99.90;;;;;;5079259;28;20047;-66
2022/10/26 10:49:26;;;;;;;2.83;1.00;;;17.50;99.90;;;;;;5079649;28;20028;-67
2022/10/26 10:51:52;;;;;;;3.03;1.15;;;17.50;99.90;;;;;;5079669;28;20032;-67
2022/10/26 10:54:32;;;;;;;5.78;1.23;;;17.50;99.90;;;;;;5076736;28;20025;-66
2022/10/26 10:57:18;;;;;;;3.20;1.13;;;17.50;99.90;;;;;;5077458;28;20443;-71
2022/10/26 11:00:08;;;;;;;5.07;1.85;;;17.50;99.90;;;;;;5086736;28;20493;-70
2022/10/26 11:02:55;;;;;;;3.55;1.95;;;17.50;99.90;;;;;;5077750;28;20039;-67
2022/10/26 11:05:32;;;;;;;4.95;2.28;;;17.50;99.90;;;;;;5078982;28;20080;-66
2022/10/26 11:08:08;;;;;;;5.80;2.38;;;17.40;99.90;;;;;;5077360;28;20062;-66
2022/10/26 11:10:41;;;;;;;7.60;2.70;;;17.30;99.90;;;;;;5079184;28;20400;-66
2022/10/26 11:13:19;;;;;;;4.07;1.95;;;17.30;99.90;;;;;;5077306;28;20039;-66
2022/10/26 11:15:49;;;;;;;3.53;1.60;;;17.20;99.90;;;;;;5066848;28;20108;-66
2022/10/26 11:18:54;;;;;;;3.70;1.50;;;17.30;99.90;;;;;;5078728;28;20033;-67
2022/10/26 11:21:33;;;;;;;3.47;1.27;;;17.30;99.90;;;;;;5078326;28;20020;-66
2022/10/26 11:24:17;;;;;;;2.05;1.00;;;17.30;99.90;;;;;;5077998;28;20048;-67
2022/10/26 11:27:10;;;;;;;4.75;1.13;;;17.40;99.90;;;;;;5078604;28;20496;-67
2022/10/26 11:29:51;;;;;;;3.40;0.93;;;17.50;99.90;;;;;;5078476;28;20032;-67
2022/10/26 11:32:26;;;;;;;2.28;1.10;;;17.50;99.90;;;;;;5078373;28;20052;-67
2022/10/26 11:35:09;;;;;;;2.95;0.80;;;17.60;99.90;;;;;;5078178;28;20079;-67
2022/10/26 11:37:44;;;;;;;3.13;0.80;;;17.70;99.90;;;;;;5066127;28;20024;-65
2022/10/26 11:40:45;;;;;;;3.08;0.90;;;17.70;99.90;;;;;;5078352;28;20028;-66
2022/10/26 11:43:15;;;;;;;8.25;0.90;;;17.70;99.90;;;;;;5059147;28;20083;-66
2022/10/26 11:45:56;;;;;;;4.13;0.80;;;17.80;99.90;;;;;;5078871;28;20040;-66
2022/10/26 11:48:39;;;;;;;5.18;0.95;;;17.80;99.90;;;;;;5078358;28;20035;-66
2022/10/26 11:51:13;;;;;;;5.68;1.15;;;17.90;99.90;;;;;;5076620;28;20054;-67
2022/10/26 11:53:42;;;;;;;2.53;0.73;;;18.00;99.90;;;;;;5072390;28;20457;-69
2022/10/26 11:56:29;;;;;;;2.30;0.75;;;18.00;99.90;;;;;;5078152;28;20028;-68
2022/10/26 11:58:56;;;;;;;1.65;0.70;;;18.00;99.90;;;;;;5061548;28;20036;-68
2022/10/26 12:01:22;;;;;;;2.85;0.93;;;17.90;99.90;;;;;;5070913;28;20017;-71
2022/10/26 12:03:52;;;;;;;4.22;1.10;;;18.00;99.90;;;;;;5072965;28;20033;-70
2022/10/26 12:06:26;;;;;;;1.98;0.90;;;18.10;99.90;;;;;;5081148;28;20028;-71
2022/10/26 12:09:01;;;;;;;4.13;1.42;;;18.20;99.90;;;;;;5077445;28;20025;-71
2022/10/26 12:11:33;;;;;;;3.08;1.38;;;18.30;99.90;;;;;;5069774;28;20024;-71
2022/10/26 12:14:08;;;;;;;5.93;1.40;;;18.30;99.90;;;;;;5075645;28;20035;-69
2022/10/26 12:16:52;;;;;;;2.45;0.68;;;18.30;99.90;;;;;;5075723;28;20045;-70
2022/10/26 12:19:27;;;;;;;3.78;1.00;;;18.30;99.90;;;;;;5075787;28;20028;-70
2022/10/26 12:21:53;;;;;;;3.25;1.20;;;18.40;99.90;;;;;;5077304;28;20023;-70
2022/10/26 12:24:22;;;;;;;2.42;0.93;;;18.50;99.90;;;;;;5076553;28;20180;-70
2022/10/26 12:27:01;;;;;;;3.20;1.15;;;18.60;99.90;;;;;;5076865;28;20168;-71
2022/10/26 12:29:35;;;;;;;3.53;1.33;;;18.60;99.90;;;;;;5077279;28;20031;-70
2022/10/26 12:32:03;;;;;;;2.50;1.20;;;18.60;99.90;;;;;;5075984;28;20032;-71
2022/10/26 12:34:28;;;;;;;2.97;0.88;;;18.60;99.90;;;;;;5076748;28;20084;-71
2022/10/26 12:36:54;;;;;;;3.60;0.95;;;18.60;99.90;;;;;;5077973;28;20470;-71
2022/10/26 12:39:27;;;;;;;3.45;1.40;;;18.50;99.90;;;;;;5076842;28;20032;-70
2022/10/26 12:42:09;;;;;;;3.75;1.40;;;18.60;99.90;;;;;;5076140;28;20115;-70
2022/10/26 12:45:06;;;;;;;3.25;1.02;;;18.60;99.90;;;;;;5076394;28;20103;-69
2022/10/26 12:47:31;;;;;;;5.47;1.27;;;18.60;99.90;;;;;;5073715;28;20081;-68
2022/10/26 12:50:06;;;;;;;5.47;1.05;;;18.60;99.90;;;;;;5075177;28;20020;-69
2022/10/26 12:52:43;;;;;;;6.50;1.10;;;18.50;99.90;;;;;;5075317;28;20541;-69
2022/10/26 12:55:11;;;;;;;5.68;1.20;;;18.60;99.90;;;;;;5075497;28;20017;-69
2022/10/26 12:58:11;;;;;;;4.75;1.08;;;18.50;99.90;;;;;;5076792;28;20024;-70
2022/10/26 13:00:44;;;;;;;3.60;1.10;;;18.60;99.90;;;;;;5076818;28;20038;-70
2022/10/26 13:03:40;;;;;;;3.55;1.38;;;18.60;99.90;;;;;;5074996;28;20036;-68
2022/10/26 13:07:02;;;;;;;4.13;1.50;;;18.60;99.90;;;;;;5074551;28;20063;-67
2022/10/26 13:09:31;;;;;;;6.13;1.10;;;18.60;99.90;;;;;;5033281;28;20029;-68
2022/10/26 13:12:01;;;;;;;3.97;1.25;;;18.70;99.90;;;;;;5033323;28;20021;-67
2022/10/26 13:14:32;;;;;;;4.07;1.17;;;18.70;99.90;;;;;;5044357;28;20404;-68